Time;durP1;ratioP1;P1;durP2;ratioP2;P2;SDS_P1;SDS_P2;PMS_P1;PMS_P2;Temp;Humidity;BMP_temperature;BMP_pressure;BME280_temperature;BME280_humidity;BME280_pressure;Samples;Min_cycle;Max_cycle;Signal;HPM_P1;HPM_P2
2023/09/12 00:00:11;;;;;;;8.10;7.50;;;33.00;50.00;;;;;;5057324;28;20538;-80
2023/09/12 00:02:39;;;;;;;8.97;8.27;;;33.00;50.00;;;;;;5055958;28;20531;-79
2023/09/12 00:05:08;;;;;;;7.93;7.43;;;32.90;50.00;;;;;;5054676;28;20521;-78
2023/09/12 00:07:36;;;;;;;8.83;8.17;;;32.90;50.00;;;;;;5055512;28;20530;-78
2023/09/12 00:10:05;;;;;;;8.00;7.40;;;32.90;50.20;;;;;;5056557;28;20525;-79
2023/09/12 00:12:33;;;;;;;8.70;8.00;;;32.90;50.10;;;;;;5056392;28;20562;-79
2023/09/12 00:15:04;;;;;;;9.13;7.90;;;32.90;50.20;;;;;;5056679;28;20450;-79
2023/09/12 00:17:33;;;;;;;8.70;7.90;;;32.80;50.20;;;;;;5055975;28;20458;-80
2023/09/12 00:20:03;;;;;;;7.90;7.30;;;32.80;50.20;;;;;;5056760;28;20457;-80
2023/09/12 00:22:31;;;;;;;8.90;8.10;;;32.80;50.20;;;;;;5057526;28;20457;-78
2023/09/12 00:25:00;;;;;;;8.60;7.90;;;32.80;50.40;;;;;;5056736;28;20542;-78
2023/09/12 00:27:28;;;;;;;8.17;7.57;;;32.80;50.40;;;;;;5058174;28;20477;-78
2023/09/12 00:29:56;;;;;;;8.90;8.20;;;32.70;50.40;;;;;;5058973;28;20522;-79
2023/09/12 00:32:24;;;;;;;8.37;7.50;;;32.70;50.40;;;;;;5061059;28;20972;-78
2023/09/12 00:34:54;;;;;;;8.57;7.80;;;32.70;50.80;;;;;;5056723;28;20450;-78
2023/09/12 00:37:22;;;;;;;8.47;7.77;;;32.70;50.60;;;;;;5056753;28;20410;-79
2023/09/12 00:39:50;;;;;;;8.20;7.50;;;32.70;50.40;;;;;;5056964;28;20468;-80
2023/09/12 00:42:18;;;;;;;8.27;7.57;;;32.70;50.60;;;;;;5056606;28;20478;-80
2023/09/12 00:44:46;;;;;;;8.33;7.63;;;32.60;50.60;;;;;;5056432;28;20427;-80
2023/09/12 00:47:14;;;;;;;8.50;7.60;;;32.60;50.60;;;;;;5056543;28;20560;-79
2023/09/12 00:49:42;;;;;;;8.10;7.40;;;32.60;50.70;;;;;;5054479;28;20498;-79
2023/09/12 00:52:11;;;;;;;8.00;7.40;;;32.50;50.70;;;;;;5055430;28;20487;-80
2023/09/12 00:54:40;;;;;;;8.60;7.80;;;32.50;50.70;;;;;;5056923;28;20529;-79
2023/09/12 00:57:08;;;;;;;7.80;7.20;;;32.50;50.80;;;;;;5056296;28;21018;-79
2023/09/12 00:59:36;;;;;;;7.63;7.03;;;32.50;50.80;;;;;;5055215;28;20436;-79
2023/09/12 01:02:04;;;;;;;8.33;7.63;;;32.50;50.80;;;;;;5053302;28;20543;-78
2023/09/12 01:04:32;;;;;;;7.93;7.23;;;32.50;50.80;;;;;;5054753;28;20447;-79
2023/09/12 01:07:03;;;;;;;7.67;7.17;;;32.50;50.80;;;;;;5054785;28;20446;-78
2023/09/12 01:09:32;;;;;;;7.03;6.43;;;32.50;50.80;;;;;;5054445;28;20521;-78
2023/09/12 01:12:02;;;;;;;7.90;7.30;;;32.50;50.80;;;;;;5053799;28;20509;-78
2023/09/12 01:14:30;;;;;;;9.00;8.20;;;32.40;50.90;;;;;;5053851;28;20441;-79
2023/09/12 01:16:58;;;;;;;8.77;8.07;;;32.40;50.90;;;;;;5054436;28;20481;-79
2023/09/12 01:19:26;;;;;;;8.50;7.80;;;32.40;51.00;;;;;;5055929;28;20413;-79
2023/09/12 01:22:11;;;;;;;7.67;7.17;;;32.30;51.00;;;;;;5055818;28;20569;-79
2023/09/12 01:25:05;;;;;;;8.27;7.53;;;32.30;51.00;;;;;;5057222;28;20439;-80
2023/09/12 01:27:35;;;;;;;7.60;7.10;;;32.30;51.10;;;;;;5054458;28;20446;-79
2023/09/12 01:30:05;;;;;;;8.10;7.43;;;32.30;51.10;;;;;;5056793;28;20830;-78
2023/09/12 01:32:33;;;;;;;8.23;7.43;;;32.30;51.20;;;;;;5056916;28;20455;-78
2023/09/12 01:35:03;;;;;;;7.80;7.20;;;32.30;51.30;;;;;;5057113;28;20445;-79
2023/09/12 01:37:31;;;;;;;8.00;7.40;;;32.20;51.10;;;;;;5055216;28;20496;-80
2023/09/12 01:39:59;;;;;;;8.37;7.67;;;32.20;51.30;;;;;;5054509;28;20446;-78
2023/09/12 01:42:30;;;;;;;7.40;6.80;;;32.20;51.40;;;;;;5054050;28;20460;-79
2023/09/12 01:45:00;;;;;;;7.77;7.17;;;32.10;51.30;;;;;;5053975;28;20441;-78
2023/09/12 01:47:28;;;;;;;7.70;7.10;;;32.10;51.30;;;;;;5054763;28;20416;-78
2023/09/12 01:49:57;;;;;;;8.70;8.00;;;32.10;51.40;;;;;;5053594;28;20945;-78
2023/09/12 01:52:26;;;;;;;7.80;7.20;;;32.10;51.40;;;;;;5053410;28;20451;-76
2023/09/12 01:54:53;;;;;;;8.30;7.60;;;32.10;51.50;;;;;;5053116;28;20442;-78
2023/09/12 01:57:21;;;;;;;7.63;7.03;;;32.10;51.60;;;;;;5054566;28;20791;-78
2023/09/12 01:59:49;;;;;;;7.60;7.00;;;32.10;51.60;;;;;;5051983;28;20417;-78
2023/09/12 02:02:19;;;;;;;7.07;6.57;;;32.00;51.60;;;;;;5053309;28;20578;-78
2023/09/12 02:04:52;;;;;;;7.67;6.93;;;32.00;51.60;;;;;;5054366;28;20478;-78
2023/09/12 02:07:20;;;;;;;8.33;7.63;;;31.90;51.60;;;;;;5053589;28;20428;-77
2023/09/12 02:09:48;;;;;;;7.50;6.93;;;31.90;51.60;;;;;;5052631;28;20949;-78
2023/09/12 02:12:16;;;;;;;7.93;7.17;;;31.90;51.90;;;;;;5052884;28;20458;-78
2023/09/12 02:14:44;;;;;;;8.23;7.53;;;31.90;51.70;;;;;;5054537;28;20453;-78
2023/09/12 02:17:12;;;;;;;7.97;7.27;;;31.90;51.70;;;;;;5054440;28;20481;-78
2023/09/12 02:19:42;;;;;;;7.70;7.10;;;31.90;51.70;;;;;;5054200;28;20447;-78
2023/09/12 02:22:10;;;;;;;7.60;7.00;;;31.90;51.80;;;;;;5053289;28;20517;-78
2023/09/12 02:24:38;;;;;;;7.50;6.90;;;31.80;51.80;;;;;;5054290;28;20582;-78
2023/09/12 02:27:06;;;;;;;7.67;7.03;;;31.80;51.70;;;;;;5053637;28;20413;-79
2023/09/12 02:29:35;;;;;;;8.50;7.80;;;31.80;51.90;;;;;;5053556;28;20461;-78
2023/09/12 02:32:03;;;;;;;8.13;7.53;;;31.80;51.80;;;;;;5053178;28;20461;-79
2023/09/12 02:34:31;;;;;;;8.00;7.30;;;31.80;51.80;;;;;;5053580;28;20530;-78
2023/09/12 02:37:01;;;;;;;7.93;7.30;;;31.80;52.00;;;;;;5053531;28;20508;-79
2023/09/12 02:39:28;;;;;;;8.57;7.87;;;31.80;51.90;;;;;;5052998;28;20451;-79
2023/09/12 02:41:56;;;;;;;8.47;7.70;;;31.80;52.00;;;;;;5052531;28;20474;-78
2023/09/12 02:44:25;;;;;;;8.00;7.40;;;31.70;51.90;;;;;;5052960;28;20449;-78
2023/09/12 02:46:53;;;;;;;7.30;6.80;;;31.70;52.00;;;;;;5053202;28;20446;-78
2023/09/12 02:49:21;;;;;;;7.80;7.20;;;31.60;52.00;;;;;;5052634;28;20446;-78
2023/09/12 02:51:49;;;;;;;7.33;6.83;;;31.60;52.10;;;;;;5052404;28;20501;-78
2023/09/12 02:54:18;;;;;;;8.37;7.77;;;31.60;52.80;;;;;;5052474;28;20409;-78
2023/09/12 02:56:46;;;;;;;7.57;6.97;;;31.60;52.10;;;;;;5052949;28;20453;-78
2023/09/12 02:59:15;;;;;;;8.27;7.57;;;31.60;52.20;;;;;;5052210;28;20430;-78
2023/09/12 03:01:42;;;;;;;7.83;7.23;;;31.60;52.20;;;;;;5052039;28;20833;-78
2023/09/12 03:04:11;;;;;;;8.07;7.43;;;31.60;52.20;;;;;;5051553;28;20455;-77
2023/09/12 03:06:39;;;;;;;8.00;7.40;;;31.60;52.30;;;;;;5051817;28;20507;-77
2023/09/12 03:09:07;;;;;;;8.03;7.37;;;31.60;52.20;;;;;;5052082;28;20439;-78
2023/09/12 03:11:36;;;;;;;8.50;7.80;;;31.60;52.30;;;;;;5051167;28;20545;-78
2023/09/12 03:14:04;;;;;;;7.67;7.00;;;31.60;52.30;;;;;;5052242;28;20488;-78
2023/09/12 03:16:32;;;;;;;7.70;7.20;;;31.50;52.30;;;;;;5052233;28;20537;-78
2023/09/12 03:19:01;;;;;;;8.10;7.43;;;31.50;52.30;;;;;;5052123;28;20439;-77
2023/09/12 03:21:29;;;;;;;7.70;7.10;;;31.50;52.90;;;;;;5051933;28;20469;-78
2023/09/12 03:23:57;;;;;;;8.10;7.40;;;31.50;52.30;;;;;;5052178;28;20452;-77
2023/09/12 03:26:25;;;;;;;8.53;7.70;;;31.50;52.40;;;;;;5052045;28;20504;-78
2023/09/12 03:28:54;;;;;;;8.60;7.87;;;31.50;52.40;;;;;;5051692;28;20820;-77
2023/09/12 03:31:22;;;;;;;8.03;7.43;;;31.50;52.40;;;;;;5051267;28;20456;-78
2023/09/12 03:33:51;;;;;;;7.90;7.30;;;31.50;52.40;;;;;;5051437;28;20454;-75
2023/09/12 03:36:18;;;;;;;8.10;7.50;;;31.50;52.40;;;;;;5051174;28;20443;-77
2023/09/12 03:38:47;;;;;;;7.93;7.33;;;31.40;52.40;;;;;;5051195;28;20517;-77
2023/09/12 03:41:14;;;;;;;8.40;7.70;;;31.50;52.50;;;;;;5051850;28;20553;-79
2023/09/12 03:43:43;;;;;;;7.60;7.00;;;31.50;52.50;;;;;;5051092;28;20480;-78
2023/09/12 03:46:12;;;;;;;8.27;7.53;;;31.40;52.40;;;;;;5050720;28;20443;-78
2023/09/12 03:48:40;;;;;;;7.77;7.17;;;31.40;52.40;;;;;;5051019;28;20405;-78
2023/09/12 03:51:09;;;;;;;8.10;7.40;;;31.40;52.60;;;;;;5050656;28;20481;-77
2023/09/12 03:53:36;;;;;;;7.47;6.97;;;31.30;52.40;;;;;;5051029;28;20504;-77
2023/09/12 03:56:05;;;;;;;7.50;6.90;;;31.40;52.60;;;;;;5050957;28;20435;-78
2023/09/12 03:58:32;;;;;;;7.60;7.00;;;31.30;52.40;;;;;;5051029;28;20430;-77
2023/09/12 04:01:00;;;;;;;7.10;6.50;;;31.40;52.60;;;;;;5050946;28;20470;-77
2023/09/12 04:03:29;;;;;;;7.87;7.17;;;31.40;52.50;;;;;;5050763;28;20475;-77
2023/09/12 04:05:57;;;;;;;7.80;7.30;;;31.40;52.50;;;;;;5050611;28;20930;-77
2023/09/12 04:08:25;;;;;;;7.97;7.30;;;31.30;52.40;;;;;;5051124;28;20540;-77
2023/09/12 04:10:54;;;;;;;7.33;6.83;;;31.30;52.40;;;;;;5051350;28;20512;-77
2023/09/12 04:13:21;;;;;;;6.97;6.47;;;31.30;52.60;;;;;;5051551;28;20435;-77
2023/09/12 04:15:50;;;;;;;8.00;7.30;;;31.30;52.60;;;;;;5050795;28;20466;-77
2023/09/12 04:18:18;;;;;;;7.87;7.20;;;31.20;52.60;;;;;;5050371;28;20465;-77
2023/09/12 04:20:47;;;;;;;7.40;6.90;;;31.20;52.60;;;;;;5050244;28;20416;-78
2023/09/12 04:23:15;;;;;;;8.03;7.40;;;31.20;52.60;;;;;;5054569;28;21058;-78
2023/09/12 04:25:44;;;;;;;8.17;7.47;;;31.20;52.60;;;;;;5055972;28;21018;-78
2023/09/12 04:28:11;;;;;;;7.77;7.17;;;31.20;52.70;;;;;;5055152;28;20525;-77
2023/09/12 04:30:40;;;;;;;8.43;7.73;;;31.20;52.60;;;;;;5054863;28;20508;-79
2023/09/12 04:33:11;;;;;;;8.23;7.53;;;31.20;52.80;;;;;;5054679;28;20433;-78
2023/09/12 04:35:39;;;;;;;7.90;7.20;;;31.20;52.80;;;;;;5054043;28;20496;-78
2023/09/12 04:38:08;;;;;;;7.73;7.13;;;31.20;52.80;;;;;;5054252;28;20424;-78
2023/09/12 04:40:36;;;;;;;8.13;7.53;;;31.10;52.80;;;;;;5055015;28;20953;-79
2023/09/12 04:43:04;;;;;;;7.93;7.33;;;31.10;52.90;;;;;;5055824;28;20441;-79
2023/09/12 04:45:34;;;;;;;8.60;7.90;;;31.10;52.90;;;;;;5057090;28;20438;-78
2023/09/12 04:48:02;;;;;;;8.30;7.60;;;31.10;52.90;;;;;;5056225;28;20949;-78
2023/09/12 04:50:30;;;;;;;8.43;7.73;;;31.10;52.80;;;;;;5053730;28;20442;-79
2023/09/12 04:52:57;;;;;;;8.70;8.00;;;31.00;52.90;;;;;;5053234;28;20462;-78
2023/09/12 04:55:27;;;;;;;8.00;7.30;;;31.00;52.90;;;;;;5053787;28;20503;-78
2023/09/12 04:57:55;;;;;;;8.03;7.43;;;31.00;52.90;;;;;;5053927;28;20537;-78
2023/09/12 05:00:23;;;;;;;8.07;7.30;;;31.00;52.90;;;;;;5053772;28;20445;-78
2023/09/12 05:02:51;;;;;;;8.40;7.67;;;31.00;52.90;;;;;;5053330;28;20462;-78
2023/09/12 05:05:20;;;;;;;7.30;6.80;;;31.00;53.10;;;;;;5053328;28;20481;-78
2023/09/12 05:07:48;;;;;;;7.80;7.13;;;31.00;53.00;;;;;;5054238;28;20443;-77
2023/09/12 05:10:16;;;;;;;8.27;7.67;;;31.00;53.10;;;;;;5054166;28;20558;-79
2023/09/12 05:12:45;;;;;;;8.60;7.90;;;31.00;53.00;;;;;;5054340;28;20537;-78
2023/09/12 05:15:13;;;;;;;7.60;7.10;;;30.90;52.90;;;;;;5053790;28;20442;-78
2023/09/12 05:17:41;;;;;;;8.00;7.33;;;31.00;53.00;;;;;;5053403;28;20797;-78
2023/09/12 05:20:10;;;;;;;8.10;7.43;;;31.00;53.00;;;;;;5053160;28;20452;-78
2023/09/12 05:22:38;;;;;;;8.10;7.40;;;31.00;52.90;;;;;;5052911;28;20546;-78
2023/09/12 05:25:06;;;;;;;7.60;7.00;;;30.90;53.00;;;;;;5052983;28;20445;-77
2023/09/12 05:27:34;;;;;;;7.73;7.13;;;30.90;53.00;;;;;;5053668;28;20501;-77
2023/09/12 05:30:04;;;;;;;7.73;7.13;;;30.90;53.10;;;;;;5053088;28;20414;-77
2023/09/12 05:32:32;;;;;;;8.27;7.57;;;30.90;53.10;;;;;;5052856;28;20458;-77
2023/09/12 05:35:00;;;;;;;8.37;7.67;;;30.90;53.10;;;;;;5052989;28;20490;-77
2023/09/12 05:37:47;;;;;;;8.20;7.40;;;30.90;53.00;;;;;;5052807;28;20512;-76
2023/09/12 05:40:15;;;;;;;8.37;7.57;;;30.90;53.10;;;;;;5053110;28;20513;-77
2023/09/12 05:42:43;;;;;;;7.87;7.27;;;30.90;53.00;;;;;;5053229;28;20545;-77
2023/09/12 05:45:13;;;;;;;7.70;7.10;;;30.90;53.20;;;;;;5052686;28;20449;-77
2023/09/12 05:47:41;;;;;;;8.13;7.43;;;30.90;53.00;;;;;;5052671;28;20434;-79
2023/09/12 05:50:09;;;;;;;8.40;7.70;;;30.90;53.20;;;;;;5052750;28;20450;-78
2023/09/12 05:52:38;;;;;;;7.87;7.20;;;30.90;53.10;;;;;;5052639;28;20529;-77
2023/09/12 05:55:06;;;;;;;9.50;8.70;;;30.90;53.20;;;;;;5052492;28;20443;-78
2023/09/12 05:57:35;;;;;;;10.37;9.40;;;30.90;53.20;;;;;;5052304;28;20516;-77
2023/09/12 06:00:05;;;;;;;11.90;10.90;;;30.90;53.20;;;;;;5052585;28;20451;-77
2023/09/12 06:02:34;;;;;;;13.90;12.40;;;30.90;53.20;;;;;;5051750;28;21004;-76
2023/09/12 06:05:02;;;;;;;12.43;11.23;;;30.80;53.20;;;;;;5051865;28;20565;-78
2023/09/12 06:07:32;;;;;;;13.43;12.03;;;30.80;53.10;;;;;;5052973;28;20465;-76
2023/09/12 06:10:00;;;;;;;13.50;12.20;;;30.80;53.20;;;;;;5052544;28;20434;-77
2023/09/12 06:12:29;;;;;;;14.90;13.50;;;30.80;53.20;;;;;;5053142;28;20474;-77
2023/09/12 06:14:57;;;;;;;13.87;12.50;;;30.80;53.80;;;;;;5053809;28;20554;-75
2023/09/12 06:17:26;;;;;;;14.53;13.13;;;30.80;53.20;;;;;;5053401;28;20451;-77
2023/09/12 06:19:56;;;;;;;14.43;13.00;;;30.80;53.10;;;;;;5052836;28;20488;-76
2023/09/12 06:22:26;;;;;;;14.40;12.97;;;30.80;53.30;;;;;;5052584;28;20793;-77
2023/09/12 06:24:54;;;;;;;13.10;11.80;;;30.80;53.20;;;;;;5052429;28;20528;-77
2023/09/12 06:27:22;;;;;;;14.33;12.93;;;30.80;53.40;;;;;;5052519;28;20557;-77
2023/09/12 06:29:50;;;;;;;13.40;12.10;;;30.80;53.30;;;;;;5052743;28;20431;-77
2023/09/12 06:32:19;;;;;;;14.17;12.77;;;30.80;53.30;;;;;;5052087;28;20465;-77
2023/09/12 06:34:47;;;;;;;13.63;12.30;;;30.80;53.10;;;;;;5052290;28;20480;-77
2023/09/12 06:37:16;;;;;;;14.70;13.20;;;30.80;53.30;;;;;;5053181;28;20443;-78
2023/09/12 06:39:44;;;;;;;14.70;13.20;;;30.80;53.20;;;;;;5053352;28;21048;-77
2023/09/12 06:42:13;;;;;;;13.47;12.17;;;30.80;53.30;;;;;;5052812;28;20481;-77
2023/09/12 06:44:41;;;;;;;13.67;12.27;;;30.80;53.30;;;;;;5051911;28;20963;-77
2023/09/12 06:47:10;;;;;;;13.57;12.27;;;30.80;53.30;;;;;;5051727;28;20518;-77
2023/09/12 06:49:38;;;;;;;12.90;11.60;;;30.90;53.40;;;;;;5052040;28;20457;-76
2023/09/12 06:52:07;;;;;;;13.43;12.03;;;30.90;53.10;;;;;;5053110;28;20505;-78
2023/09/12 06:54:37;;;;;;;12.80;11.60;;;30.80;53.30;;;;;;5052016;28;20448;-78
2023/09/12 06:57:05;;;;;;;13.73;12.43;;;30.80;53.40;;;;;;5052610;28;20503;-78
2023/09/12 06:59:34;;;;;;;13.30;12.00;;;30.90;53.30;;;;;;5052337;28;20463;-76
2023/09/12 07:02:02;;;;;;;13.20;12.00;;;30.80;53.10;;;;;;5051800;28;20490;-78
2023/09/12 07:04:30;;;;;;;12.10;10.90;;;30.90;53.30;;;;;;5051910;28;20466;-78
2023/09/12 07:06:59;;;;;;;12.80;11.60;;;30.80;53.20;;;;;;5051436;28;20534;-77
2023/09/12 07:09:27;;;;;;;12.17;11.00;;;30.80;53.20;;;;;;5050273;28;20537;-76
2023/09/12 07:11:56;;;;;;;12.40;11.17;;;30.90;53.30;;;;;;5052250;28;20557;-79
2023/09/12 07:14:25;;;;;;;12.33;11.13;;;30.80;53.30;;;;;;5051636;28;20546;-78
2023/09/12 07:16:53;;;;;;;13.20;11.80;;;30.80;53.40;;;;;;5051876;28;20466;-79
2023/09/12 07:19:21;;;;;;;12.60;11.40;;;30.90;53.20;;;;;;5051727;28;20451;-77
2023/09/12 07:21:50;;;;;;;11.77;10.67;;;30.90;53.50;;;;;;5051567;28;20465;-78
2023/09/12 07:24:18;;;;;;;12.33;11.20;;;30.90;53.40;;;;;;5051875;28;20442;-78
2023/09/12 07:26:46;;;;;;;11.67;10.60;;;30.90;53.20;;;;;;5052008;28;20446;-77
2023/09/12 07:29:16;;;;;;;12.77;11.47;;;30.90;53.50;;;;;;5051320;28;20509;-80
2023/09/12 07:31:44;;;;;;;13.43;12.10;;;30.90;53.10;;;;;;5051756;28;20554;-78
2023/09/12 07:34:14;;;;;;;12.07;10.90;;;30.90;53.20;;;;;;5052117;28;20458;-79
2023/09/12 07:36:43;;;;;;;11.43;10.40;;;30.90;53.50;;;;;;5051560;28;20508;-78
2023/09/12 07:39:11;;;;;;;11.70;10.63;;;30.90;53.30;;;;;;5051727;28;20435;-78
2023/09/12 07:41:39;;;;;;;12.70;11.40;;;30.90;53.40;;;;;;5050864;28;20462;-79
2023/09/12 07:44:10;;;;;;;11.90;10.80;;;30.90;53.20;;;;;;5052286;28;20478;-79
2023/09/12 07:46:40;;;;;;;12.03;10.90;;;30.80;53.40;;;;;;5054291;28;20445;-77
2023/09/12 07:49:09;;;;;;;11.40;10.30;;;30.80;53.40;;;;;;5052341;28;20443;-78
2023/09/12 07:51:37;;;;;;;11.27;10.27;;;30.90;53.50;;;;;;5052201;28;20976;-78
2023/09/12 07:54:06;;;;;;;12.13;11.03;;;30.90;53.60;;;;;;5052055;28;20443;-76
2023/09/12 07:56:34;;;;;;;11.67;10.60;;;30.90;53.50;;;;;;5052348;28;20412;-77
2023/09/12 07:59:03;;;;;;;11.63;10.53;;;30.80;53.50;;;;;;5053716;28;20460;-79
2023/09/12 08:01:31;;;;;;;11.33;10.30;;;30.80;53.70;;;;;;5055195;28;20541;-77
2023/09/12 08:04:00;;;;;;;11.67;10.57;;;30.90;53.40;;;;;;5054563;28;20446;-79
2023/09/12 08:06:28;;;;;;;9.87;9.00;;;30.80;53.40;;;;;;5055373;28;20896;-78
2023/09/12 08:09:03;;;;;;;10.60;9.53;;;30.90;53.50;;;;;;5056380;28;20446;-78
2023/09/12 08:11:30;;;;;;;11.00;9.80;;;30.80;53.70;;;;;;5056084;28;20458;-77
2023/09/12 08:13:58;;;;;;;10.90;10.00;;;30.90;53.50;;;;;;5054849;28;20487;-77
2023/09/12 08:16:26;;;;;;;11.00;10.00;;;30.90;53.70;;;;;;5055397;28;20889;-78
2023/09/12 08:18:55;;;;;;;11.00;10.00;;;30.90;53.70;;;;;;5054229;28;20446;-78
2023/09/12 08:21:24;;;;;;;11.03;10.03;;;30.90;53.40;;;;;;5054974;28;20437;-78
2023/09/12 08:23:52;;;;;;;11.10;10.10;;;30.90;53.60;;;;;;5054459;28;20480;-78
2023/09/12 08:26:20;;;;;;;11.40;10.40;;;30.90;53.50;;;;;;5054019;28;20478;-76
2023/09/12 08:28:48;;;;;;;11.20;10.20;;;30.90;53.50;;;;;;5054571;28;20512;-78
2023/09/12 08:31:17;;;;;;;10.83;9.83;;;31.00;53.30;;;;;;5054416;28;20516;-78
2023/09/12 08:33:44;;;;;;;11.60;9.80;;;30.90;53.40;;;;;;5054155;28;20440;-78
2023/09/12 08:36:12;;;;;;;10.90;9.90;;;31.00;53.50;;;;;;5054418;28;20465;-79
2023/09/12 08:38:42;;;;;;;10.70;9.80;;;30.90;53.40;;;;;;5053952;28;20457;-76
2023/09/12 08:41:10;;;;;;;10.63;9.73;;;30.90;53.50;;;;;;5054855;28;20561;-76
2023/09/12 08:43:38;;;;;;;11.10;10.00;;;31.00;53.50;;;;;;5054648;28;20512;-78
2023/09/12 08:46:07;;;;;;;10.60;9.63;;;30.90;53.50;;;;;;5053849;28;20477;-79
2023/09/12 08:48:36;;;;;;;11.40;10.40;;;31.00;53.50;;;;;;5054078;28;20451;-77
2023/09/12 08:51:04;;;;;;;11.00;9.97;;;31.00;53.40;;;;;;5053756;28;20409;-76
2023/09/12 08:53:32;;;;;;;10.80;9.90;;;31.00;53.50;;;;;;5054212;28;20474;-78
2023/09/12 08:56:03;;;;;;;10.87;9.77;;;31.10;53.50;;;;;;5054039;28;20822;-78
2023/09/12 08:58:31;;;;;;;10.03;9.13;;;31.00;53.60;;;;;;5053564;28;20418;-79
2023/09/12 09:01:00;;;;;;;10.80;9.90;;;31.10;53.30;;;;;;5052958;28;20489;-78
2023/09/12 09:03:28;;;;;;;10.67;9.67;;;31.10;53.40;;;;;;5053530;28;20929;-78
2023/09/12 09:05:56;;;;;;;11.60;10.60;;;31.10;53.40;;;;;;5053467;28;20517;-78
2023/09/12 09:08:24;;;;;;;10.70;9.70;;;31.00;53.60;;;;;;5053121;28;20466;-77
2023/09/12 09:10:56;;;;;;;10.53;9.47;;;31.10;53.50;;;;;;5052950;28;20447;-78
2023/09/12 09:13:26;;;;;;;10.90;9.90;;;31.10;53.50;;;;;;5053916;28;20525;-78
2023/09/12 09:16:13;;;;;;;9.80;9.00;;;31.10;53.50;;;;;;5053432;28;21010;-78
2023/09/12 09:18:54;;;;;;;11.40;10.40;;;31.20;53.60;;;;;;5053106;28;20435;-79
2023/09/12 09:21:24;;;;;;;9.87;9.07;;;31.20;53.30;;;;;;5053502;28;20490;-78
2023/09/12 09:23:52;;;;;;;10.23;9.43;;;31.20;53.20;;;;;;5052850;28;20508;-77
2023/09/12 09:26:20;;;;;;;10.80;9.80;;;31.30;53.20;;;;;;5053001;28;20572;-78
2023/09/12 09:29:04;;;;;;;10.20;9.30;;;31.30;53.10;;;;;;5052965;28;20877;-77
2023/09/12 09:31:33;;;;;;;10.37;9.47;;;31.30;53.30;;;;;;5052389;28;20959;-76
2023/09/12 09:34:03;;;;;;;10.20;9.20;;;31.40;53.20;;;;;;5052634;28;20526;-76
2023/09/12 09:36:32;;;;;;;10.27;9.30;;;31.50;53.00;;;;;;5052970;28;20431;-76
2023/09/12 09:39:00;;;;;;;10.20;9.30;;;31.50;53.00;;;;;;5052811;28;20421;-77
2023/09/12 09:41:28;;;;;;;10.33;9.43;;;31.50;53.10;;;;;;5070360;22;20474;-76
2023/09/12 09:43:56;;;;;;;10.93;9.83;;;31.50;53.00;;;;;;5033355;28;20501;-77
2023/09/12 09:46:26;;;;;;;10.43;9.53;;;31.50;53.00;;;;;;5032405;28;20463;-76
2023/09/12 09:48:58;;;;;;;9.70;8.90;;;31.50;53.00;;;;;;5033117;28;20539;-76
2023/09/12 09:51:32;;;;;;;9.77;8.87;;;31.50;53.00;;;;;;5033169;28;20459;-76
2023/09/12 09:54:01;;;;;;;9.93;9.03;;;31.50;53.00;;;;;;5032901;28;20418;-76
2023/09/12 09:56:31;;;;;;;10.20;9.30;;;31.40;53.00;;;;;;5032913;28;20938;-77
2023/09/12 09:59:00;;;;;;;9.60;8.80;;;31.40;53.00;;;;;;5031888;28;20446;-76
2023/09/12 10:01:30;;;;;;;11.47;10.27;;;31.40;53.20;;;;;;5032238;28;20509;-77
2023/09/12 10:03:59;;;;;;;11.27;10.00;;;31.40;53.20;;;;;;5032140;28;20447;-77
2023/09/12 10:06:28;;;;;;;10.87;9.87;;;31.40;53.30;;;;;;5032065;28;20504;-76
2023/09/12 10:08:56;;;;;;;10.93;9.93;;;31.40;53.20;;;;;;5032029;28;20448;-77
2023/09/12 10:11:26;;;;;;;10.10;9.27;;;31.40;53.40;;;;;;5032010;28;20893;-76
2023/09/12 10:13:54;;;;;;;11.47;9.50;;;31.40;53.20;;;;;;5032672;28;20543;-76
2023/09/12 10:16:24;;;;;;;11.23;10.30;;;31.40;53.10;;;;;;5032154;28;20526;-76
2023/09/12 10:18:59;;;;;;;10.93;9.93;;;31.30;53.40;;;;;;5033236;28;20414;-78
2023/09/12 10:21:30;;;;;;;10.43;9.53;;;31.40;53.30;;;;;;5032067;28;20543;-77
2023/09/12 10:23:59;;;;;;;10.53;9.60;;;31.40;53.30;;;;;;5032376;28;20444;-78
2023/09/12 10:26:27;;;;;;;10.73;9.70;;;31.40;53.80;;;;;;5034533;28;20486;-77
2023/09/12 10:28:57;;;;;;;10.43;9.43;;;31.40;53.20;;;;;;5033487;28;20463;-78
2023/09/12 10:31:25;;;;;;;10.30;9.40;;;31.40;53.20;;;;;;5034789;28;20467;-78
2023/09/12 10:33:54;;;;;;;10.07;9.27;;;31.40;53.20;;;;;;5041734;28;20455;-79
2023/09/12 10:36:24;;;;;;;9.70;8.90;;;31.40;53.10;;;;;;5046952;28;20451;-79
2023/09/12 10:38:53;;;;;;;10.03;9.13;;;31.40;53.30;;;;;;5055718;28;20427;-79
2023/09/12 10:41:21;;;;;;;9.40;8.60;;;31.50;53.40;;;;;;5037354;28;20444;-77
2023/09/12 10:43:52;;;;;;;10.07;9.20;;;31.50;53.20;;;;;;5032820;28;20926;-77
2023/09/12 10:46:21;;;;;;;10.70;9.70;;;31.50;53.10;;;;;;5033613;28;20501;-77
2023/09/12 10:48:50;;;;;;;10.57;9.67;;;31.60;53.20;;;;;;5033458;28;20447;-77
2023/09/12 10:51:18;;;;;;;10.27;9.47;;;31.70;53.10;;;;;;5034665;28;20550;-78
2023/09/12 10:53:49;;;;;;;10.33;9.43;;;31.90;53.10;;;;;;5034521;28;20448;-77
2023/09/12 10:56:19;;;;;;;10.80;9.80;;;32.10;52.80;;;;;;5035190;28;20454;-78
2023/09/12 10:59:14;;;;;;;9.60;8.77;;;32.20;52.60;;;;;;5034220;28;20451;-78
2023/09/12 11:01:45;;;;;;;9.70;8.90;;;32.30;52.60;;;;;;4985687;28;20890;-77
2023/09/12 11:04:34;;;;;;;9.97;9.17;;;32.50;52.40;;;;;;5031439;28;20522;-77
2023/09/12 11:07:02;;;;;;;9.60;8.87;;;32.60;52.20;;;;;;5033923;28;20475;-78
2023/09/12 11:09:32;;;;;;;9.77;8.80;;;32.70;51.90;;;;;;5032474;28;20590;-78
2023/09/12 11:12:03;;;;;;;8.80;8.10;;;32.90;51.90;;;;;;5033241;28;20494;-77
2023/09/12 11:14:32;;;;;;;9.40;8.70;;;33.10;51.70;;;;;;5032001;28;20459;-77
2023/09/12 11:17:24;;;;;;;10.83;9.70;;;33.30;51.50;;;;;;5033140;28;20439;-77
2023/09/12 11:19:53;;;;;;;9.37;8.57;;;33.60;51.20;;;;;;5024404;28;20501;-76
2023/09/12 11:22:25;;;;;;;9.40;8.70;;;33.90;50.80;;;;;;5031431;28;20537;-75
2023/09/12 11:24:55;;;;;;;8.37;7.83;;;34.20;50.40;;;;;;5031208;28;20917;-75
2023/09/12 11:27:25;;;;;;;9.00;8.30;;;34.60;50.10;;;;;;5031080;28;20471;-75
2023/09/12 11:29:55;;;;;;;9.00;8.37;;;35.00;49.60;;;;;;5031719;28;20453;-75
2023/09/12 11:32:27;;;;;;;8.77;8.17;;;35.30;49.00;;;;;;5032418;28;20481;-75
2023/09/12 11:34:56;;;;;;;7.80;7.30;;;35.50;48.70;;;;;;5035308;28;20424;-75
2023/09/12 11:37:25;;;;;;;8.27;7.67;;;35.80;48.30;;;;;;5035147;28;20443;-76
2023/09/12 11:39:57;;;;;;;7.47;7.03;;;36.00;47.90;;;;;;5035504;28;20452;-77
2023/09/12 11:42:27;;;;;;;7.17;6.77;;;36.00;47.70;;;;;;5035081;28;20550;-75
2023/09/12 11:44:56;;;;;;;7.93;7.43;;;36.00;47.40;;;;;;5034830;28;20832;-75
2023/09/12 11:47:24;;;;;;;7.27;6.77;;;35.90;47.70;;;;;;5035471;28;20517;-76
2023/09/12 11:49:53;;;;;;;7.37;6.90;;;36.10;47.90;;;;;;5035196;28;20443;-75
2023/09/12 11:52:21;;;;;;;7.77;7.27;;;36.40;47.60;;;;;;5034766;28;20471;-76
2023/09/12 11:54:53;;;;;;;7.40;6.90;;;36.60;46.80;;;;;;5038199;28;20442;-75
2023/09/12 11:57:22;;;;;;;7.13;6.63;;;36.50;46.60;;;;;;5037093;28;20443;-76
2023/09/12 11:59:52;;;;;;;7.37;6.87;;;36.30;47.00;;;;;;5036023;28;20470;-75
2023/09/12 12:02:20;;;;;;;6.80;6.40;;;36.30;47.40;;;;;;5035371;28;20555;-75
2023/09/12 12:04:48;;;;;;;6.50;6.10;;;36.20;47.20;;;;;;5035338;28;20522;-76
2023/09/12 12:07:16;;;;;;;6.83;6.40;;;36.20;47.30;;;;;;5034682;28;21059;-75
2023/09/12 12:09:45;;;;;;;6.50;6.10;;;36.40;47.80;;;;;;5034385;28;20474;-75
2023/09/12 12:12:14;;;;;;;7.53;7.03;;;36.70;47.20;;;;;;5034420;28;20471;-75
2023/09/12 12:14:44;;;;;;;7.27;6.77;;;36.90;46.40;;;;;;5034271;28;20452;-76
2023/09/12 12:17:13;;;;;;;6.67;6.27;;;36.80;46.50;;;;;;5033958;28;20946;-76
2023/09/12 12:19:46;;;;;;;6.77;6.33;;;36.70;46.80;;;;;;5034165;28;20532;-76
2023/09/12 12:22:15;;;;;;;6.83;6.43;;;36.50;46.90;;;;;;5034202;28;20494;-75
2023/09/12 12:24:46;;;;;;;6.40;5.90;;;36.70;47.40;;;;;;5034179;28;21005;-76
2023/09/12 12:27:15;;;;;;;7.03;6.43;;;36.70;46.80;;;;;;5034192;28;20446;-77
2023/09/12 12:29:44;;;;;;;5.90;5.60;;;36.70;47.00;;;;;;5034007;28;20886;-77
2023/09/12 12:32:16;;;;;;;6.63;6.23;;;36.80;47.00;;;;;;5034142;28;20493;-76
2023/09/12 12:34:48;;;;;;;6.43;6.13;;;37.00;46.80;;;;;;5033742;28;20477;-76
2023/09/12 12:37:37;;;;;;;6.13;5.83;;;37.30;46.60;;;;;;5034376;28;20432;-75
2023/09/12 12:40:06;;;;;;;6.40;6.10;;;37.40;45.70;;;;;;5033996;28;20523;-75
2023/09/12 12:42:36;;;;;;;6.20;5.90;;;37.20;45.90;;;;;;5033613;28;20487;-76
2023/09/12 12:45:23;;;;;;;6.03;5.73;;;37.10;46.50;;;;;;5033027;28;20455;-76
2023/09/12 12:47:52;;;;;;;6.40;6.00;;;37.30;46.10;;;;;;5033682;28;20490;-76
2023/09/12 12:50:21;;;;;;;5.70;5.40;;;37.50;46.30;;;;;;5034010;28;20811;-76